Terminal Aerodrome Forecast
Issued by NWS Pendleton, OR

Home | Current Version | Previous Version | Text Only | Print | Product List | Glossary On
Versions: 1 2 3 4 5 6 7 8 9 10 11 12 13 14 15 16
000
FTUS46 KPDT 290500
TAFPDT
TAF
KPDT 290520Z 2906/3006 16006KT P6SM SCT200
     FM291000 15005KT P6SM SCT120 BKN150
     FM291500 VRB05KT P6SM BKN100
     FM291900 27008KT P6SM FEW100 SCT150=

USA.gov is the U.S. government's official web portal to all federal, state and local government web resources and services.